EGNV METAR and TAF | Updated Today

EGNV METAR

Durham Tees Valley Airport

Observation time: 35 min. ago

EGNV 061820Z 22006KT 9999 SCT028 03/00 Q1037

Need help? Read our tutorial on how to read METARs or read the parsed version below.

Durham Tees Valley Airport (EGNV) METAR

  • Weather conditions on Mon, 06 Feb 2023 18:20:00 +0000 (35 min. ago):
  • Present conditions: Dry
  • Clouds: Scattered at 853 meters
  • Visibility: Greater than 10 km
  • Wind: 220 degrees at 6 knots
  • Temperature: 3 celsius
  • Dew point: 0 celsius
  • Pressure: 1037 millibars
  • Remarks: None


Useful to know...

EGNV TAF

Durham Tees Valley Airport

TAF EGNV 061654Z 0618/0622 22006KT 9999 FEW020
Observation time: 2:01 hr. ago
Need help? Read our tutorial on how to read TAFs or read the parsed version below.

Parsed version of TAF for Durham Tees Valley Airport (EGNV)

  • From 06 February at 18:00 UTC, to day 06 of the month at 22:00 UTC
  • Clouds: A few at 610 meters
  • Visibility: Greater than 10 km
  • Wind: 220 degrees at 6